sensor_id;sensor_type;location;lat;lon;timestamp;temperature;humidity
7844;DHT22;3967;48.702;9.326;2023-06-04T00:02:15;18.80;58.10
7844;DHT22;3967;48.702;9.326;2023-06-04T00:04:42;18.80;57.80
7844;DHT22;3967;48.702;9.326;2023-06-04T00:07:09;18.80;57.80
7844;DHT22;3967;48.702;9.326;2023-06-04T00:09:36;18.90;57.90
7844;DHT22;3967;48.702;9.326;2023-06-04T00:12:03;18.80;57.80
7844;DHT22;3967;48.702;9.326;2023-06-04T00:14:29;18.80;57.90
7844;DHT22;3967;48.702;9.326;2023-06-04T00:16:56;18.90;58.20
7844;DHT22;3967;48.702;9.326;2023-06-04T00:19:23;18.90;59.00
7844;DHT22;3967;48.702;9.326;2023-06-04T00:21:50;18.80;59.00
7844;DHT22;3967;48.702;9.326;2023-06-04T00:24:17;18.90;59.30
7844;DHT22;3967;48.702;9.326;2023-06-04T00:26:44;18.90;59.20
7844;DHT22;3967;48.702;9.326;2023-06-04T00:29:11;18.90;59.40
7844;DHT22;3967;48.702;9.326;2023-06-04T00:31:38;18.90;59.60
7844;DHT22;3967;48.702;9.326;2023-06-04T00:34:05;18.80;59.70
7844;DHT22;3967;48.702;9.326;2023-06-04T00:36:32;18.90;59.70
7844;DHT22;3967;48.702;9.326;2023-06-04T00:38:59;18.80;60.20
7844;DHT22;3967;48.702;9.326;2023-06-04T00:41:26;18.80;59.80
7844;DHT22;3967;48.702;9.326;2023-06-04T00:43:52;18.70;60.20
7844;DHT22;3967;48.702;9.326;2023-06-04T00:46:26;18.80;60.50
7844;DHT22;3967;48.702;9.326;2023-06-04T00:48:54;18.70;60.30
7844;DHT22;3967;48.702;9.326;2023-06-04T00:51:21;18.60;60.70
7844;DHT22;3967;48.702;9.326;2023-06-04T00:53:49;18.70;60.60
7844;DHT22;3967;48.702;9.326;2023-06-04T00:56:16;18.60;60.60
7844;DHT22;3967;48.702;9.326;2023-06-04T00:58:44;18.60;60.40
7844;DHT22;3967;48.702;9.326;2023-06-04T01:03:51;18.30;60.20
7844;DHT22;3967;48.702;9.326;2023-06-04T01:08:50;18.30;60.60
7844;DHT22;3967;48.702;9.326;2023-06-04T01:11:35;18.10;60.90
7844;DHT22;3967;48.702;9.326;2023-06-04T01:14:03;17.90;61.10
7844;DHT22;3967;48.702;9.326;2023-06-04T01:16:33;18.00;61.70
7844;DHT22;3967;48.702;9.326;2023-06-04T01:19:02;18.00;61.70
7844;DHT22;3967;48.702;9.326;2023-06-04T01:21:33;18.00;61.50
7844;DHT22;3967;48.702;9.326;2023-06-04T01:24:05;18.00;61.10
7844;DHT22;3967;48.702;9.326;2023-06-04T01:26:33;17.80;61.10
7844;DHT22;3967;48.702;9.326;2023-06-04T01:29:01;17.70;61.10
7844;DHT22;3967;48.702;9.326;2023-06-04T01:31:28;17.60;61.10
7844;DHT22;3967;48.702;9.326;2023-06-04T01:33:59;17.60;61.20
7844;DHT22;3967;48.702;9.326;2023-06-04T01:36:26;17.50;61.20
7844;DHT22;3967;48.702;9.326;2023-06-04T01:38:53;17.20;61.80
7844;DHT22;3967;48.702;9.326;2023-06-04T01:41:20;17.30;62.30
7844;DHT22;3967;48.702;9.326;2023-06-04T01:43:46;17.30;62.60
7844;DHT22;3967;48.702;9.326;2023-06-04T01:46:13;17.30;63.00
7844;DHT22;3967;48.702;9.326;2023-06-04T01:48:40;17.30;63.40
7844;DHT22;3967;48.702;9.326;2023-06-04T01:51:07;17.40;63.20
7844;DHT22;3967;48.702;9.326;2023-06-04T01:53:34;17.40;62.40
7844;DHT22;3967;48.702;9.326;2023-06-04T01:56:01;17.10;60.60
7844;DHT22;3967;48.702;9.326;2023-06-04T01:58:28;17.20;60.00
7844;DHT22;3967;48.702;9.326;2023-06-04T02:00:56;17.30;59.80
7844;DHT22;3967;48.702;9.326;2023-06-04T02:03:26;17.30;60.50
7844;DHT22;3967;48.702;9.326;2023-06-04T02:05:54;17.20;59.60
7844;DHT22;3967;48.702;9.326;2023-06-04T02:08:21;17.20;59.70
7844;DHT22;3967;48.702;9.326;2023-06-04T02:10:48;17.30;59.60
7844;DHT22;3967;48.702;9.326;2023-06-04T02:13:15;17.30;60.10
7844;DHT22;3967;48.702;9.326;2023-06-04T02:15:42;17.30;59.80
7844;DHT22;3967;48.702;9.326;2023-06-04T02:18:19;17.30;59.80
7844;DHT22;3967;48.702;9.326;2023-06-04T02:20:49;17.00;59.20
7844;DHT22;3967;48.702;9.326;2023-06-04T02:23:18;16.80;58.40
7844;DHT22;3967;48.702;9.326;2023-06-04T02:25:46;16.80;57.90
7844;DHT22;3967;48.702;9.326;2023-06-04T02:28:13;16.80;57.50
7844;DHT22;3967;48.702;9.326;2023-06-04T02:30:40;16.90;56.80
7844;DHT22;3967;48.702;9.326;2023-06-04T02:33:07;16.70;56.40
7844;DHT22;3967;48.702;9.326;2023-06-04T02:35:36;16.80;56.80
7844;DHT22;3967;48.702;9.326;2023-06-04T02:38:03;16.70;56.60
7844;DHT22;3967;48.702;9.326;2023-06-04T02:40:30;16.80;56.80
7844;DHT22;3967;48.702;9.326;2023-06-04T02:42:57;16.70;56.90
7844;DHT22;3967;48.702;9.326;2023-06-04T02:45:24;16.70;57.00
7844;DHT22;3967;48.702;9.326;2023-06-04T02:47:51;16.80;57.10
7844;DHT22;3967;48.702;9.326;2023-06-04T02:50:18;16.70;56.40
7844;DHT22;3967;48.702;9.326;2023-06-04T02:52:46;16.70;56.60
7844;DHT22;3967;48.702;9.326;2023-06-04T02:55:13;16.80;56.80
7844;DHT22;3967;48.702;9.326;2023-06-04T02:57:43;16.70;56.90
7844;DHT22;3967;48.702;9.326;2023-06-04T03:00:11;16.70;57.20
7844;DHT22;3967;48.702;9.326;2023-06-04T03:02:43;16.70;57.50
7844;DHT22;3967;48.702;9.326;2023-06-04T03:05:12;16.70;57.80
7844;DHT22;3967;48.702;9.326;2023-06-04T03:07:41;16.70;58.10
7844;DHT22;3967;48.702;9.326;2023-06-04T03:10:09;16.70;57.90
7844;DHT22;3967;48.702;9.326;2023-06-04T03:12:36;16.60;57.60
7844;DHT22;3967;48.702;9.326;2023-06-04T03:15:04;16.40;57.90
7844;DHT22;3967;48.702;9.326;2023-06-04T03:17:31;16.50;58.10
7844;DHT22;3967;48.702;9.326;2023-06-04T03:19:58;16.50;58.20
7844;DHT22;3967;48.702;9.326;2023-06-04T03:22:25;16.60;58.50
7844;DHT22;3967;48.702;9.326;2023-06-04T03:24:52;16.60;59.20
7844;DHT22;3967;48.702;9.326;2023-06-04T03:27:19;16.60;59.30
7844;DHT22;3967;48.702;9.326;2023-06-04T03:29:46;16.60;59.30
7844;DHT22;3967;48.702;9.326;2023-06-04T03:32:14;16.60;59.50
7844;DHT22;3967;48.702;9.326;2023-06-04T03:34:43;16.40;59.50
7844;DHT22;3967;48.702;9.326;2023-06-04T03:37:09;16.40;59.90
7844;DHT22;3967;48.702;9.326;2023-06-04T03:39:36;16.30;60.40
7844;DHT22;3967;48.702;9.326;2023-06-04T03:42:03;16.30;60.70
7844;DHT22;3967;48.702;9.326;2023-06-04T03:44:31;16.40;60.70
7844;DHT22;3967;48.702;9.326;2023-06-04T03:46:57;16.20;60.70
7844;DHT22;3967;48.702;9.326;2023-06-04T03:49:24;16.10;61.00
7844;DHT22;3967;48.702;9.326;2023-06-04T03:51:51;16.20;61.10
7844;DHT22;3967;48.702;9.326;2023-06-04T03:54:18;16.20;61.00
7844;DHT22;3967;48.702;9.326;2023-06-04T03:56:45;16.20;61.20
7844;DHT22;3967;48.702;9.326;2023-06-04T03:59:12;16.20;61.30
7844;DHT22;3967;48.702;9.326;2023-06-04T04:01:39;16.30;60.70
7844;DHT22;3967;48.702;9.326;2023-06-04T04:04:06;16.40;61.60
7844;DHT22;3967;48.702;9.326;2023-06-04T04:06:33;16.30;61.50
7844;DHT22;3967;48.702;9.326;2023-06-04T04:09:00;16.30;61.20
7844;DHT22;3967;48.702;9.326;2023-06-04T04:11:26;16.10;59.00
7844;DHT22;3967;48.702;9.326;2023-06-04T04:13:53;16.00;58.10
7844;DHT22;3967;48.702;9.326;2023-06-04T04:16:20;16.20;57.90
7844;DHT22;3967;48.702;9.326;2023-06-04T04:18:47;16.30;57.90
7844;DHT22;3967;48.702;9.326;2023-06-04T04:21:13;16.50;57.60
7844;DHT22;3967;48.702;9.326;2023-06-04T04:23:40;16.50;57.50
7844;DHT22;3967;48.702;9.326;2023-06-04T04:26:08;16.70;57.70
7844;DHT22;3967;48.702;9.326;2023-06-04T04:28:35;16.70;57.80
7844;DHT22;3967;48.702;9.326;2023-06-04T04:31:02;16.80;56.70
7844;DHT22;3967;48.702;9.326;2023-06-04T04:33:29;17.00;57.00
7844;DHT22;3967;48.702;9.326;2023-06-04T04:35:59;17.10;56.60
7844;DHT22;3967;48.702;9.326;2023-06-04T04:38:26;17.20;57.00
7844;DHT22;3967;48.702;9.326;2023-06-04T04:40:55;17.10;57.60
7844;DHT22;3967;48.702;9.326;2023-06-04T04:43:32;17.10;57.20
7844;DHT22;3967;48.702;9.326;2023-06-04T04:45:59;17.10;56.60
7844;DHT22;3967;48.702;9.326;2023-06-04T04:48:26;17.10;57.70
7844;DHT22;3967;48.702;9.326;2023-06-04T04:50:53;17.10;59.10
7844;DHT22;3967;48.702;9.326;2023-06-04T04:53:21;17.30;58.90
7844;DHT22;3967;48.702;9.326;2023-06-04T04:55:48;17.40;58.20
7844;DHT22;3967;48.702;9.326;2023-06-04T04:58:15;17.60;58.70
7844;DHT22;3967;48.702;9.326;2023-06-04T05:00:42;17.40;58.20
7844;DHT22;3967;48.702;9.326;2023-06-04T05:03:09;17.50;57.70
7844;DHT22;3967;48.702;9.326;2023-06-04T05:05:35;17.50;56.80
7844;DHT22;3967;48.702;9.326;2023-06-04T05:08:02;17.60;56.50
7844;DHT22;3967;48.702;9.326;2023-06-04T05:10:29;17.40;56.80
7844;DHT22;3967;48.702;9.326;2023-06-04T05:12:57;17.50;56.90
7844;DHT22;3967;48.702;9.326;2023-06-04T05:15:26;17.50;58.10
7844;DHT22;3967;48.702;9.326;2023-06-04T05:17:53;17.60;58.20
7844;DHT22;3967;48.702;9.326;2023-06-04T05:20:20;17.40;58.40
7844;DHT22;3967;48.702;9.326;2023-06-04T05:22:49;17.40;58.50
7844;DHT22;3967;48.702;9.326;2023-06-04T05:25:16;17.40;58.40
7844;DHT22;3967;48.702;9.326;2023-06-04T05:27:43;17.50;58.00
7844;DHT22;3967;48.702;9.326;2023-06-04T05:30:10;17.60;57.60
7844;DHT22;3967;48.702;9.326;2023-06-04T05:32:37;17.70;57.40
7844;DHT22;3967;48.702;9.326;2023-06-04T05:35:08;17.70;57.00
7844;DHT22;3967;48.702;9.326;2023-06-04T05:37:36;17.70;56.80
7844;DHT22;3967;48.702;9.326;2023-06-04T05:40:05;17.40;56.60
7844;DHT22;3967;48.702;9.326;2023-06-04T05:42:32;17.80;57.40
7844;DHT22;3967;48.702;9.326;2023-06-04T05:44:59;18.00;57.20
7844;DHT22;3967;48.702;9.326;2023-06-04T05:47:27;18.00;57.10
7844;DHT22;3967;48.702;9.326;2023-06-04T05:49:58;18.30;56.30
7844;DHT22;3967;48.702;9.326;2023-06-04T05:52:24;18.50;56.00
7844;DHT22;3967;48.702;9.326;2023-06-04T05:54:51;18.70;55.60
7844;DHT22;3967;48.702;9.326;2023-06-04T05:57:18;18.70;55.30
7844;DHT22;3967;48.702;9.326;2023-06-04T05:59:45;18.70;56.10
7844;DHT22;3967;48.702;9.326;2023-06-04T06:02:12;18.70;55.90
7844;DHT22;3967;48.702;9.326;2023-06-04T06:04:39;19.00;55.70
7844;DHT22;3967;48.702;9.326;2023-06-04T06:07:06;18.70;55.30
7844;DHT22;3967;48.702;9.326;2023-06-04T06:09:33;18.90;56.50
7844;DHT22;3967;48.702;9.326;2023-06-04T06:12:00;19.10;56.50
7844;DHT22;3967;48.702;9.326;2023-06-04T06:14:27;19.60;56.70
7844;DHT22;3967;48.702;9.326;2023-06-04T06:16:53;19.70;55.40
7844;DHT22;3967;48.702;9.326;2023-06-04T06:19:20;19.60;56.00
7844;DHT22;3967;48.702;9.326;2023-06-04T06:21:47;19.60;55.40
7844;DHT22;3967;48.702;9.326;2023-06-04T06:24:14;19.50;55.50
7844;DHT22;3967;48.702;9.326;2023-06-04T06:26:40;19.90;55.60
7844;DHT22;3967;48.702;9.326;2023-06-04T06:29:07;20.00;55.60
7844;DHT22;3967;48.702;9.326;2023-06-04T06:31:34;19.90;55.20
7844;DHT22;3967;48.702;9.326;2023-06-04T06:34:01;19.80;55.30
7844;DHT22;3967;48.702;9.326;2023-06-04T06:36:28;20.00;55.00
7844;DHT22;3967;48.702;9.326;2023-06-04T06:38:55;20.30;55.30
7844;DHT22;3967;48.702;9.326;2023-06-04T06:41:21;20.60;54.80
7844;DHT22;3967;48.702;9.326;2023-06-04T06:43:48;20.60;53.90
7844;DHT22;3967;48.702;9.326;2023-06-04T06:46:15;20.60;53.80
7844;DHT22;3967;48.702;9.326;2023-06-04T06:48:42;20.70;52.80
7844;DHT22;3967;48.702;9.326;2023-06-04T06:51:11;20.50;53.00
7844;DHT22;3967;48.702;9.326;2023-06-04T06:53:38;20.90;53.50
7844;DHT22;3967;48.702;9.326;2023-06-04T06:56:06;21.10;53.70
7844;DHT22;3967;48.702;9.326;2023-06-04T06:58:33;21.50;53.60
7844;DHT22;3967;48.702;9.326;2023-06-04T07:01:00;21.40;52.60
7844;DHT22;3967;48.702;9.326;2023-06-04T07:03:27;21.10;52.50
7844;DHT22;3967;48.702;9.326;2023-06-04T07:05:54;21.30;52.90
7844;DHT22;3967;48.702;9.326;2023-06-04T07:08:21;21.40;53.30
7844;DHT22;3967;48.702;9.326;2023-06-04T07:10:48;21.60;53.10
7844;DHT22;3967;48.702;9.326;2023-06-04T07:13:15;21.60;52.50
7844;DHT22;3967;48.702;9.326;2023-06-04T07:15:42;21.70;52.80
7844;DHT22;3967;48.702;9.326;2023-06-04T07:18:09;21.90;51.80
7844;DHT22;3967;48.702;9.326;2023-06-04T07:20:36;22.20;52.10
7844;DHT22;3967;48.702;9.326;2023-06-04T07:23:03;22.30;50.90
7844;DHT22;3967;48.702;9.326;2023-06-04T07:25:30;22.10;50.60
7844;DHT22;3967;48.702;9.326;2023-06-04T07:27:57;22.30;50.40
7844;DHT22;3967;48.702;9.326;2023-06-04T07:30:27;22.50;51.20
7844;DHT22;3967;48.702;9.326;2023-06-04T07:32:54;22.50;51.00
7844;DHT22;3967;48.702;9.326;2023-06-04T07:35:21;22.80;50.80
7844;DHT22;3967;48.702;9.326;2023-06-04T07:37:48;22.70;50.50
7844;DHT22;3967;48.702;9.326;2023-06-04T07:40:16;22.50;50.70
7844;DHT22;3967;48.702;9.326;2023-06-04T07:42:44;22.80;49.70
7844;DHT22;3967;48.702;9.326;2023-06-04T07:45:11;23.10;50.60
7844;DHT22;3967;48.702;9.326;2023-06-04T07:47:41;22.80;49.80
7844;DHT22;3967;48.702;9.326;2023-06-04T07:50:08;22.80;49.70
7844;DHT22;3967;48.702;9.326;2023-06-04T07:52:35;22.60;49.80
7844;DHT22;3967;48.702;9.326;2023-06-04T07:55:02;22.90;50.90
7844;DHT22;3967;48.702;9.326;2023-06-04T07:57:29;23.00;50.20
7844;DHT22;3967;48.702;9.326;2023-06-04T07:59:56;22.90;49.50
7844;DHT22;3967;48.702;9.326;2023-06-04T08:02:24;23.10;50.10
7844;DHT22;3967;48.702;9.326;2023-06-04T08:04:51;23.20;50.20
7844;DHT22;3967;48.702;9.326;2023-06-04T08:07:18;23.10;50.30
7844;DHT22;3967;48.702;9.326;2023-06-04T08:09:45;23.50;50.60
7844;DHT22;3967;48.702;9.326;2023-06-04T08:12:12;23.80;50.60
7844;DHT22;3967;48.702;9.326;2023-06-04T08:14:39;23.80;49.40
7844;DHT22;3967;48.702;9.326;2023-06-04T08:17:05;24.10;50.00
7844;DHT22;3967;48.702;9.326;2023-06-04T08:19:32;24.00;49.70
7844;DHT22;3967;48.702;9.326;2023-06-04T08:21:59;23.40;49.90
7844;DHT22;3967;48.702;9.326;2023-06-04T08:24:26;23.70;50.70
7844;DHT22;3967;48.702;9.326;2023-06-04T08:26:53;24.00;50.90
7844;DHT22;3967;48.702;9.326;2023-06-04T08:29:20;24.40;50.00
7844;DHT22;3967;48.702;9.326;2023-06-04T08:31:46;24.50;49.70
7844;DHT22;3967;48.702;9.326;2023-06-04T08:34:13;24.30;49.50
7844;DHT22;3967;48.702;9.326;2023-06-04T08:36:40;24.50;49.20
7844;DHT22;3967;48.702;9.326;2023-06-04T08:39:08;24.60;49.40
7844;DHT22;3967;48.702;9.326;2023-06-04T08:41:54;24.50;49.00
7844;DHT22;3967;48.702;9.326;2023-06-04T08:44:22;24.70;48.40
7844;DHT22;3967;48.702;9.326;2023-06-04T08:46:52;24.90;49.50
7844;DHT22;3967;48.702;9.326;2023-06-04T08:49:22;24.70;48.90
7844;DHT22;3967;48.702;9.326;2023-06-04T08:51:51;24.50;48.70
7844;DHT22;3967;48.702;9.326;2023-06-04T08:54:18;25.10;49.60
7844;DHT22;3967;48.702;9.326;2023-06-04T08:56:45;25.30;49.10
7844;DHT22;3967;48.702;9.326;2023-06-04T08:59:12;25.30;48.90
7844;DHT22;3967;48.702;9.326;2023-06-04T09:01:41;25.60;49.70
7844;DHT22;3967;48.702;9.326;2023-06-04T09:04:11;25.90;49.10
7844;DHT22;3967;48.702;9.326;2023-06-04T09:06:39;26.20;48.40
7844;DHT22;3967;48.702;9.326;2023-06-04T09:09:09;26.20;48.10
7844;DHT22;3967;48.702;9.326;2023-06-04T09:11:51;26.00;48.20
7844;DHT22;3967;48.702;9.326;2023-06-04T09:14:18;25.70;48.10
7844;DHT22;3967;48.702;9.326;2023-06-04T09:16:50;25.40;48.50
7844;DHT22;3967;48.702;9.326;2023-06-04T09:19:18;25.40;48.90
7844;DHT22;3967;48.702;9.326;2023-06-04T09:24:20;25.30;49.10
7844;DHT22;3967;48.702;9.326;2023-06-04T09:26:48;25.50;48.00
7844;DHT22;3967;48.702;9.326;2023-06-04T09:29:17;25.30;47.90
7844;DHT22;3967;48.702;9.326;2023-06-04T09:31:57;25.60;49.00
7844;DHT22;3967;48.702;9.326;2023-06-04T09:34:28;25.60;48.50
7844;DHT22;3967;48.702;9.326;2023-06-04T09:36:55;25.10;46.90
7844;DHT22;3967;48.702;9.326;2023-06-04T09:39:23;25.80;47.80
7844;DHT22;3967;48.702;9.326;2023-06-04T09:41:58;25.70;46.30
7844;DHT22;3967;48.702;9.326;2023-06-04T09:44:26;25.90;47.00
7844;DHT22;3967;48.702;9.326;2023-06-04T09:46:56;25.50;46.60
7844;DHT22;3967;48.702;9.326;2023-06-04T09:49:24;25.70;46.50
7844;DHT22;3967;48.702;9.326;2023-06-04T09:51:51;25.60;44.90
7844;DHT22;3967;48.702;9.326;2023-06-04T09:54:18;25.60;44.50
7844;DHT22;3967;48.702;9.326;2023-06-04T09:56:45;26.00;43.00
7844;DHT22;3967;48.702;9.326;2023-06-04T09:59:13;25.60;43.40
7844;DHT22;3967;48.702;9.326;2023-06-04T10:01:40;25.20;43.60
7844;DHT22;3967;48.702;9.326;2023-06-04T10:04:13;25.60;43.10
7844;DHT22;3967;48.702;9.326;2023-06-04T10:06:41;25.70;43.30
7844;DHT22;3967;48.702;9.326;2023-06-04T10:09:08;25.70;44.00
7844;DHT22;3967;48.702;9.326;2023-06-04T10:11:39;25.30;43.80
7844;DHT22;3967;48.702;9.326;2023-06-04T10:14:19;25.50;44.70
7844;DHT22;3967;48.702;9.326;2023-06-04T10:16:46;25.80;44.70
7844;DHT22;3967;48.702;9.326;2023-06-04T10:19:14;25.70;44.10
7844;DHT22;3967;48.702;9.326;2023-06-04T10:21:43;25.80;45.10
7844;DHT22;3967;48.702;9.326;2023-06-04T10:24:11;26.10;44.20
7844;DHT22;3967;48.702;9.326;2023-06-04T10:26:39;25.80;43.50
7844;DHT22;3967;48.702;9.326;2023-06-04T10:29:08;25.80;43.80
7844;DHT22;3967;48.702;9.326;2023-06-04T10:31:37;26.00;43.10
7844;DHT22;3967;48.702;9.326;2023-06-04T10:34:04;25.80;44.70
7844;DHT22;3967;48.702;9.326;2023-06-04T10:36:31;25.80;44.50
7844;DHT22;3967;48.702;9.326;2023-06-04T10:38:57;25.60;43.80
7844;DHT22;3967;48.702;9.326;2023-06-04T10:41:25;25.80;43.80
7844;DHT22;3967;48.702;9.326;2023-06-04T10:44:01;25.80;44.20
7844;DHT22;3967;48.702;9.326;2023-06-04T10:46:38;25.80;43.80
7844;DHT22;3967;48.702;9.326;2023-06-04T10:49:11;26.00;43.30
7844;DHT22;3967;48.702;9.326;2023-06-04T10:51:38;26.20;44.50
7844;DHT22;3967;48.702;9.326;2023-06-04T10:54:05;26.40;43.40
7844;DHT22;3967;48.702;9.326;2023-06-04T10:56:34;26.80;44.50
7844;DHT22;3967;48.702;9.326;2023-06-04T10:59:14;26.60;43.70
7844;DHT22;3967;48.702;9.326;2023-06-04T11:01:41;26.70;43.60
7844;DHT22;3967;48.702;9.326;2023-06-04T11:04:26;26.70;43.70
7844;DHT22;3967;48.702;9.326;2023-06-04T11:07:06;26.60;43.60
7844;DHT22;3967;48.702;9.326;2023-06-04T11:09:38;26.40;45.60
7844;DHT22;3967;48.702;9.326;2023-06-04T11:12:13;26.20;44.00
7844;DHT22;3967;48.702;9.326;2023-06-04T11:14:40;26.30;44.80
7844;DHT22;3967;48.702;9.326;2023-06-04T11:17:11;25.60;44.60
7844;DHT22;3967;48.702;9.326;2023-06-04T11:19:38;25.80;44.40
7844;DHT22;3967;48.702;9.326;2023-06-04T11:22:05;25.80;44.20
7844;DHT22;3967;48.702;9.326;2023-06-04T11:24:33;25.70;44.20
7844;DHT22;3967;48.702;9.326;2023-06-04T11:26:59;25.70;44.00
7844;DHT22;3967;48.702;9.326;2023-06-04T11:29:43;26.30;44.10
7844;DHT22;3967;48.702;9.326;2023-06-04T11:32:10;26.20;43.10
7844;DHT22;3967;48.702;9.326;2023-06-04T11:34:47;26.30;42.30
7844;DHT22;3967;48.702;9.326;2023-06-04T11:37:13;26.50;42.50
7844;DHT22;3967;48.702;9.326;2023-06-04T11:39:40;26.70;43.00
7844;DHT22;3967;48.702;9.326;2023-06-04T11:42:10;26.80;42.50
7844;DHT22;3967;48.702;9.326;2023-06-04T11:44:36;26.70;41.70
7844;DHT22;3967;48.702;9.326;2023-06-04T11:47:08;26.60;42.20
7844;DHT22;3967;48.702;9.326;2023-06-04T11:49:36;26.50;42.10
7844;DHT22;3967;48.702;9.326;2023-06-04T11:52:04;26.40;42.00
7844;DHT22;3967;48.702;9.326;2023-06-04T11:54:32;26.30;42.50
7844;DHT22;3967;48.702;9.326;2023-06-04T11:57:03;26.60;42.30
7844;DHT22;3967;48.702;9.326;2023-06-04T11:59:31;26.60;42.80
7844;DHT22;3967;48.702;9.326;2023-06-04T12:01:58;26.90;43.50
7844;DHT22;3967;48.702;9.326;2023-06-04T12:04:29;27.00;42.50
7844;DHT22;3967;48.702;9.326;2023-06-04T12:06:59;26.60;41.90
7844;DHT22;3967;48.702;9.326;2023-06-04T12:09:32;26.40;41.30
7844;DHT22;3967;48.702;9.326;2023-06-04T12:12:02;26.30;40.90
7844;DHT22;3967;48.702;9.326;2023-06-04T12:14:30;26.80;41.40
7844;DHT22;3967;48.702;9.326;2023-06-04T12:17:02;26.90;39.80
7844;DHT22;3967;48.702;9.326;2023-06-04T12:19:29;27.30;39.20
7844;DHT22;3967;48.702;9.326;2023-06-04T12:24:30;27.00;39.10
7844;DHT22;3967;48.702;9.326;2023-06-04T12:27:05;27.30;39.10
7844;DHT22;3967;48.702;9.326;2023-06-04T12:29:33;27.70;39.10
7844;DHT22;3967;48.702;9.326;2023-06-04T12:32:03;27.60;38.10
7844;DHT22;3967;48.702;9.326;2023-06-04T12:34:31;27.10;40.10
7844;DHT22;3967;48.702;9.326;2023-06-04T12:36:58;27.50;39.40
7844;DHT22;3967;48.702;9.326;2023-06-04T12:39:25;27.20;39.20
7844;DHT22;3967;48.702;9.326;2023-06-04T12:41:52;26.90;40.10
7844;DHT22;3967;48.702;9.326;2023-06-04T12:44:19;26.50;40.40
7844;DHT22;3967;48.702;9.326;2023-06-04T12:46:45;26.90;40.40
7844;DHT22;3967;48.702;9.326;2023-06-04T12:49:15;26.90;39.30
7844;DHT22;3967;48.702;9.326;2023-06-04T12:51:42;27.50;38.90
7844;DHT22;3967;48.702;9.326;2023-06-04T12:54:09;27.60;39.30
7844;DHT22;3967;48.702;9.326;2023-06-04T12:56:37;27.70;38.10
7844;DHT22;3967;48.702;9.326;2023-06-04T12:59:03;27.40;36.50
7844;DHT22;3967;48.702;9.326;2023-06-04T13:01:30;27.60;36.90
7844;DHT22;3967;48.702;9.326;2023-06-04T13:03:57;27.40;37.80
7844;DHT22;3967;48.702;9.326;2023-06-04T13:06:24;27.40;38.60
7844;DHT22;3967;48.702;9.326;2023-06-04T13:08:51;27.30;38.80
7844;DHT22;3967;48.702;9.326;2023-06-04T13:11:18;27.10;37.80
7844;DHT22;3967;48.702;9.326;2023-06-04T13:13:45;26.60;37.60
7844;DHT22;3967;48.702;9.326;2023-06-04T13:16:12;26.70;37.90
7844;DHT22;3967;48.702;9.326;2023-06-04T13:18:39;26.80;38.20
7844;DHT22;3967;48.702;9.326;2023-06-04T13:21:06;26.90;38.00
7844;DHT22;3967;48.702;9.326;2023-06-04T13:23:33;27.00;37.90
7844;DHT22;3967;48.702;9.326;2023-06-04T13:26:15;26.80;39.10
7844;DHT22;3967;48.702;9.326;2023-06-04T13:28:41;27.40;39.60
7844;DHT22;3967;48.702;9.326;2023-06-04T13:31:08;27.80;38.40
7844;DHT22;3967;48.702;9.326;2023-06-04T13:33:35;27.80;37.60
7844;DHT22;3967;48.702;9.326;2023-06-04T13:36:03;27.10;37.70
7844;DHT22;3967;48.702;9.326;2023-06-04T13:38:30;26.80;37.70
7844;DHT22;3967;48.702;9.326;2023-06-04T13:40:57;27.20;38.80
7844;DHT22;3967;48.702;9.326;2023-06-04T13:43:24;27.40;39.40
7844;DHT22;3967;48.702;9.326;2023-06-04T13:45:51;26.90;38.50
7844;DHT22;3967;48.702;9.326;2023-06-04T13:48:18;26.90;38.90
7844;DHT22;3967;48.702;9.326;2023-06-04T13:50:45;26.60;38.30
7844;DHT22;3967;48.702;9.326;2023-06-04T13:53:12;26.50;38.70
7844;DHT22;3967;48.702;9.326;2023-06-04T13:55:41;26.60;38.50
7844;DHT22;3967;48.702;9.326;2023-06-04T13:58:08;26.80;38.30
7844;DHT22;3967;48.702;9.326;2023-06-04T14:00:35;27.00;38.20
7844;DHT22;3967;48.702;9.326;2023-06-04T14:03:01;27.00;37.60
7844;DHT22;3967;48.702;9.326;2023-06-04T14:05:28;26.90;37.20
7844;DHT22;3967;48.702;9.326;2023-06-04T14:07:55;26.70;37.50
7844;DHT22;3967;48.702;9.326;2023-06-04T14:10:22;26.80;37.30
7844;DHT22;3967;48.702;9.326;2023-06-04T14:12:49;26.90;37.70
7844;DHT22;3967;48.702;9.326;2023-06-04T14:15:16;26.80;38.40
7844;DHT22;3967;48.702;9.326;2023-06-04T14:17:43;26.60;37.90
7844;DHT22;3967;48.702;9.326;2023-06-04T14:20:10;26.80;38.10
7844;DHT22;3967;48.702;9.326;2023-06-04T14:22:37;27.40;38.70
7844;DHT22;3967;48.702;9.326;2023-06-04T14:25:05;27.20;37.20
7844;DHT22;3967;48.702;9.326;2023-06-04T14:27:33;27.50;38.00
7844;DHT22;3967;48.702;9.326;2023-06-04T14:30:04;27.30;37.50
7844;DHT22;3967;48.702;9.326;2023-06-04T14:32:32;27.00;36.70
7844;DHT22;3967;48.702;9.326;2023-06-04T14:35:00;27.10;36.10
7844;DHT22;3967;48.702;9.326;2023-06-04T14:37:27;26.40;36.10
7844;DHT22;3967;48.702;9.326;2023-06-04T14:39:54;26.80;36.50
7844;DHT22;3967;48.702;9.326;2023-06-04T14:42:21;27.00;37.00
7844;DHT22;3967;48.702;9.326;2023-06-04T14:44:47;26.90;36.70
7844;DHT22;3967;48.702;9.326;2023-06-04T14:47:14;27.00;36.20
7844;DHT22;3967;48.702;9.326;2023-06-04T14:49:41;26.90;37.10
7844;DHT22;3967;48.702;9.326;2023-06-04T14:52:08;26.60;37.90
7844;DHT22;3967;48.702;9.326;2023-06-04T14:54:35;26.70;37.30
7844;DHT22;3967;48.702;9.326;2023-06-04T14:57:02;26.60;38.60
7844;DHT22;3967;48.702;9.326;2023-06-04T14:59:29;26.90;38.60
7844;DHT22;3967;48.702;9.326;2023-06-04T15:01:56;27.10;38.00
7844;DHT22;3967;48.702;9.326;2023-06-04T15:04:23;27.50;36.90
7844;DHT22;3967;48.702;9.326;2023-06-04T15:06:50;27.50;36.90
7844;DHT22;3967;48.702;9.326;2023-06-04T15:09:17;27.50;35.50
7844;DHT22;3967;48.702;9.326;2023-06-04T15:11:43;27.70;35.80
7844;DHT22;3967;48.702;9.326;2023-06-04T15:14:10;27.70;36.00
7844;DHT22;3967;48.702;9.326;2023-06-04T15:16:37;27.70;36.10
7844;DHT22;3967;48.702;9.326;2023-06-04T15:19:04;27.60;37.30
7844;DHT22;3967;48.702;9.326;2023-06-04T15:21:31;27.40;35.70
7844;DHT22;3967;48.702;9.326;2023-06-04T15:23:57;27.50;37.20
7844;DHT22;3967;48.702;9.326;2023-06-04T15:26:24;27.40;36.20
7844;DHT22;3967;48.702;9.326;2023-06-04T15:28:54;27.30;36.40
7844;DHT22;3967;48.702;9.326;2023-06-04T15:31:23;27.10;36.00
7844;DHT22;3967;48.702;9.326;2023-06-04T15:33:50;27.00;36.50
7844;DHT22;3967;48.702;9.326;2023-06-04T15:36:16;27.20;37.10
7844;DHT22;3967;48.702;9.326;2023-06-04T15:38:43;27.30;36.10
7844;DHT22;3967;48.702;9.326;2023-06-04T15:41:10;27.40;35.60
7844;DHT22;3967;48.702;9.326;2023-06-04T15:43:37;27.40;36.50
7844;DHT22;3967;48.702;9.326;2023-06-04T15:46:03;27.20;36.50
7844;DHT22;3967;48.702;9.326;2023-06-04T15:48:30;27.20;37.00
7844;DHT22;3967;48.702;9.326;2023-06-04T15:50:57;27.10;36.40
7844;DHT22;3967;48.702;9.326;2023-06-04T15:53:24;26.90;35.50
7844;DHT22;3967;48.702;9.326;2023-06-04T15:55:51;27.20;36.10
7844;DHT22;3967;48.702;9.326;2023-06-04T15:58:18;27.20;36.00
7844;DHT22;3967;48.702;9.326;2023-06-04T16:00:45;27.10;37.20
7844;DHT22;3967;48.702;9.326;2023-06-04T16:03:11;27.20;36.40
7844;DHT22;3967;48.702;9.326;2023-06-04T16:05:38;27.30;36.50
7844;DHT22;3967;48.702;9.326;2023-06-04T16:08:05;27.10;36.30
7844;DHT22;3967;48.702;9.326;2023-06-04T16:10:32;26.90;36.60
7844;DHT22;3967;48.702;9.326;2023-06-04T16:12:59;26.80;37.10
7844;DHT22;3967;48.702;9.326;2023-06-04T16:15:26;26.90;36.80
7844;DHT22;3967;48.702;9.326;2023-06-04T16:17:53;26.90;36.20